Currituck — AEFR — position and weather

sailwx.info

Track history (hours):
 
Tides and Currents Weather Stations Pressure Air Temp Water Temp Dewpoint Dewpoint Depression Visibility Wind Speed Wind Dir Waves Ship Positions

Currituck

Last reported at 2016-Nov-29 03:25 UTC. Time now 2016-Dec-04 03:56 UTC.
Position N 38°19' W 075°04'.

Length 45 m; draft 3 m.

Type: Dredging. MMSI: 369970446.

Date/timePositionNaut miles runAvg speedWind from/ knotsBaromVisibWave heightAir tempDewpointWater temp
2016-Nov-29 03:25N 38°19' W 075°04'1 0.6
2016-Nov-29 01:33N 38°20' W 075°05'28 2.2
2016-Nov-28 12:33N 38°47' W 074°56'9 8.8
2016-Nov-28 11:33N 38°55' W 074°51'2 2.0
2016-Nov-28 10:28N 38°57' W 074°53'1 1.1
2016-Nov-28 09:33N 38°56' W 074°52'0 0.1
2016-Nov-28 08:22N 38°56' W 074°52'0 0.2
2016-Nov-28 07:31N 38°56' W 074°52'0 0.0
2016-Nov-28 06:33N 38°56' W 074°52'1 0.0
2016-Nov-26 10:32N 38°57' W 074°53'42 3.1
2016-Nov-25 21:07N 39°28' W 074°17'5 9.0
2016-Nov-25 20:33N 39°32' W 074°13'9 8.9
2016-Nov-25 19:33N 39°40' W 074°08'5 5.5
2016-Nov-25 18:33N 39°45' W 074°07'0 0.0
2016-Nov-25 17:33N 39°45' W 074°07'0 0.0
2016-Nov-25 16:33N 39°45' W 074°07'0 0.0
2016-Nov-25 15:33N 39°45' W 074°07'0 0.0
2016-Nov-25 14:33N 39°45' W 074°07'0 0.0
2016-Nov-25 13:33N 39°45' W 074°07'0 0.0
2016-Nov-25 12:33N 39°45' W 074°07'0 0.0
2016-Nov-25 11:33N 39°45' W 074°07'0 0.0
2016-Nov-25 10:33N 39°45' W 074°07'0 0.0
2016-Nov-25 09:33N 39°45' W 074°07'0 0.0
2016-Nov-25 08:33N 39°45' W 074°07'0 0.0
2016-Nov-25 07:33N 39°45' W 074°07'0 0.0
2016-Nov-25 06:33N 39°45' W 074°07'0 0.0
2016-Nov-25 05:33N 39°45' W 074°07'0 0.0
2016-Nov-25 04:33N 39°45' W 074°07'0 0.0
2016-Nov-25 03:33N 39°45' W 074°07'0 0.0
2016-Nov-25 02:33N 39°45' W 074°07'0 0.0
2016-Nov-25 01:33N 39°45' W 074°07'0 0.0
2016-Nov-25 00:33N 39°45' W 074°07'0 0.0
2016-Nov-24 23:33N 39°45' W 074°07'0 0.0
2016-Nov-24 22:33N 39°45' W 074°07'0 0.0
2016-Nov-24 21:33N 39°45' W 074°07'0 0.0
2016-Nov-24 20:33N 39°45' W 074°07'0 0.0
2016-Nov-24 19:33N 39°45' W 074°07'0 0.0
2016-Nov-24 18:33N 39°45' W 074°07'0 0.0
2016-Nov-24 17:33N 39°45' W 074°07'0 0.0
2016-Nov-24 16:33N 39°45' W 074°07'0 0.0
2016-Nov-24 15:33N 39°45' W 074°07'0 0.0
2016-Nov-24 14:32N 39°45' W 074°07'0 0.0
2016-Nov-24 13:32N 39°45' W 074°07'0 0.0
2016-Nov-24 12:33N 39°45' W 074°07'0 0.0
2016-Nov-24 11:33N 39°45' W 074°07'0 0.0
2016-Nov-24 10:33N 39°45' W 074°07'0 0.0
2016-Nov-24 09:33N 39°45' W 074°07'0 0.0
2016-Nov-24 08:33N 39°45' W 074°07'0 0.0
2016-Nov-24 07:33N 39°45' W 074°07'0 0.0
2016-Nov-24 06:33N 39°45' W 074°07'0 0.0
2016-Nov-24 05:33N 39°45' W 074°07'0 0.0
2016-Nov-24 04:33N 39°45' W 074°07'0 0.0
2016-Nov-24 03:33N 39°45' W 074°07'0 0.0
2016-Nov-24 02:33N 39°45' W 074°07'0 0.0
2016-Nov-24 01:33N 39°45' W 074°07'0 0.0
2016-Nov-24 00:33N 39°45' W 074°07'0 0.0
2016-Nov-23 23:33N 39°45' W 074°07'0 0.0
2016-Nov-23 22:33N 39°45' W 074°07'0 0.0
2016-Nov-23 21:33N 39°45' W 074°07'0 0.0
2016-Nov-23 20:33N 39°45' W 074°07'0 0.0
2016-Nov-23 19:33N 39°45' W 074°07'0 0.0
2016-Nov-23 18:33N 39°45' W 074°07'0 0.0
2016-Nov-23 17:33N 39°45' W 074°07'0 0.0
2016-Nov-23 16:33N 39°45' W 074°07'0 0.0
2016-Nov-23 15:33N 39°45' W 074°07'0 0.0
2016-Nov-23 14:33N 39°45' W 074°07'0 0.0
2016-Nov-23 13:33N 39°45' W 074°07'0 0.0
2016-Nov-23 12:33N 39°45' W 074°07'0 0.0
2016-Nov-23 11:33N 39°45' W 074°07'0 0.0
2016-Nov-23 10:33N 39°45' W 074°07'0 0.0
2016-Nov-23 09:33N 39°45' W 074°07'0 0.0
2016-Nov-23 08:33N 39°45' W 074°07'0 0.0
2016-Nov-23 07:33N 39°45' W 074°07'0 0.0
2016-Nov-23 06:33N 39°45' W 074°07'0 0.0
2016-Nov-23 03:33N 39°45' W 074°07'0 0.0
2016-Nov-23 02:33N 39°45' W 074°07'0 0.0
2016-Nov-23 00:33N 39°45' W 074°07'0 0.0
2016-Nov-22 23:33N 39°45' W 074°07'0 0.0
2016-Nov-22 22:33N 39°45' W 074°07'0 0.0
2016-Nov-22 20:33N 39°45' W 074°07'0 0.0
2016-Nov-22 19:33N 39°45' W 074°07'0 0.0
2016-Nov-22 17:33N 39°45' W 074°07'0 0.0
2016-Nov-22 16:33N 39°45' W 074°07'0 0.0
2016-Nov-22 15:33N 39°45' W 074°07'0 0.0
2016-Nov-22 14:33N 39°45' W 074°07'0 0.0
2016-Nov-22 13:33N 39°45' W 074°07'0 0.0
2016-Nov-22 10:33N 39°45' W 074°07'0 0.0
2016-Nov-22 09:33N 39°45' W 074°07'0 0.0
2016-Nov-22 08:33N 39°45' W 074°07'0 0.0
2016-Nov-22 07:33N 39°45' W 074°07'0 0.0
2016-Nov-22 05:33N 39°45' W 074°07'0 0.0
2016-Nov-22 04:33N 39°45' W 074°07'0 0.0
2016-Nov-22 03:33N 39°45' W 074°07'0 0.0
2016-Nov-22 02:33N 39°45' W 074°07'0 0.0
2016-Nov-21 23:33N 39°45' W 074°07'0 0.2
2016-Nov-21 21:33N 39°46' W 074°07'21 5.2
2016-Nov-21 17:34N 40°06' W 074°02'0 0.0
2016-Nov-21 14:33N 40°06' W 074°02'0 0.1
2016-Nov-21 13:33N 40°06' W 074°02'0 0.0
2016-Nov-20 21:34N 40°06' W 074°02'0 0.0
2016-Nov-20 17:33N 40°06' W 074°02'0 0.2
2016-Nov-20 16:33N 40°06' W 074°02'1 0.3
2016-Nov-20 14:33N 40°07' W 074°02'1 0.6
2016-Nov-20 13:33N 40°06' W 074°02'0 0.0
2016-Nov-20 12:33N 40°06' W 074°02'5 0.4
2016-Nov-19 22:19N 40°11' W 074°00'5 3.0
2016-Nov-19 20:33N 40°06' W 074°02'0 0.1
2016-Nov-19 19:33N 40°06' W 074°02'0 0.1
2016-Nov-19 17:33N 40°06' W 074°02'0 0.1
2016-Nov-19 16:33N 40°06' W 074°02'0 0.0
2016-Nov-19 14:33N 40°06' W 074°02'3 0.9
2016-Nov-19 11:33N 40°09' W 074°01'3 0.4
2016-Nov-19 04:30N 40°11' W 074°01'0 0.0
2016-Nov-19 03:31N 40°11' W 074°01'  
Track history (hours):
 
Tides and Currents Weather Stations Pressure Air Temp Water Temp Dewpoint Dewpoint Depression Visibility Wind Speed Wind Dir Waves Ship Positions

Currituck

Last reported at 2016-Nov-29 03:25 UTC. Time now 2016-Dec-04 03:56 UTC.
Position N 38°19' W 075°04'.

Length 45 m; draft 3 m.

Type: Dredging. MMSI: 369970446.

Date/timePositionNaut miles runAvg speedWind from/ knotsBaromVisibWave heightAir tempDewpointWater temp
2016-Nov-29 03:25N 38°19' W 075°04'1 0.6
2016-Nov-29 01:33N 38°20' W 075°05'28 2.2
2016-Nov-28 12:33N 38°47' W 074°56'9 8.8
2016-Nov-28 11:33N 38°55' W 074°51'2 2.0
2016-Nov-28 10:28N 38°57' W 074°53'1 1.1
2016-Nov-28 09:33N 38°56' W 074°52'0 0.1
2016-Nov-28 08:22N 38°56' W 074°52'0 0.2
2016-Nov-28 07:31N 38°56' W 074°52'0 0.0
2016-Nov-28 06:33N 38°56' W 074°52'1 0.0
2016-Nov-26 10:32N 38°57' W 074°53'42 3.1
2016-Nov-25 21:07N 39°28' W 074°17'5 9.0
2016-Nov-25 20:33N 39°32' W 074°13'9 8.9
2016-Nov-25 19:33N 39°40' W 074°08'5 5.5
2016-Nov-25 18:33N 39°45' W 074°07'0 0.0
2016-Nov-25 17:33N 39°45' W 074°07'0 0.0
2016-Nov-25 16:33N 39°45' W 074°07'0 0.0
2016-Nov-25 15:33N 39°45' W 074°07'0 0.0
2016-Nov-25 14:33N 39°45' W 074°07'0 0.0
2016-Nov-25 13:33N 39°45' W 074°07'0 0.0
2016-Nov-25 12:33N 39°45' W 074°07'0 0.0
2016-Nov-25 11:33N 39°45' W 074°07'0 0.0
2016-Nov-25 10:33N 39°45' W 074°07'0 0.0
2016-Nov-25 09:33N 39°45' W 074°07'0 0.0
2016-Nov-25 08:33N 39°45' W 074°07'0 0.0
2016-Nov-25 07:33N 39°45' W 074°07'0 0.0
2016-Nov-25 06:33N 39°45' W 074°07'0 0.0
2016-Nov-25 05:33N 39°45' W 074°07'0 0.0
2016-Nov-25 04:33N 39°45' W 074°07'0 0.0
2016-Nov-25 03:33N 39°45' W 074°07'0 0.0
2016-Nov-25 02:33N 39°45' W 074°07'0 0.0
2016-Nov-25 01:33N 39°45' W 074°07'0 0.0
2016-Nov-25 00:33N 39°45' W 074°07'0 0.0
2016-Nov-24 23:33N 39°45' W 074°07'0 0.0
2016-Nov-24 22:33N 39°45' W 074°07'0 0.0
2016-Nov-24 21:33N 39°45' W 074°07'0 0.0
2016-Nov-24 20:33N 39°45' W 074°07'0 0.0
2016-Nov-24 19:33N 39°45' W 074°07'0 0.0
2016-Nov-24 18:33N 39°45' W 074°07'0 0.0
2016-Nov-24 17:33N 39°45' W 074°07'0 0.0
2016-Nov-24 16:33N 39°45' W 074°07'0 0.0
2016-Nov-24 15:33N 39°45' W 074°07'0 0.0
2016-Nov-24 14:32N 39°45' W 074°07'0 0.0
2016-Nov-24 13:32N 39°45' W 074°07'0 0.0
2016-Nov-24 12:33N 39°45' W 074°07'0 0.0
2016-Nov-24 11:33N 39°45' W 074°07'0 0.0
2016-Nov-24 10:33N 39°45' W 074°07'0 0.0
2016-Nov-24 09:33N 39°45' W 074°07'0 0.0
2016-Nov-24 08:33N 39°45' W 074°07'0 0.0
2016-Nov-24 07:33N 39°45' W 074°07'0 0.0
2016-Nov-24 06:33N 39°45' W 074°07'0 0.0
2016-Nov-24 05:33N 39°45' W 074°07'0 0.0
2016-Nov-24 04:33N 39°45' W 074°07'0 0.0
2016-Nov-24 03:33N 39°45' W 074°07'0 0.0
2016-Nov-24 02:33N 39°45' W 074°07'0 0.0
2016-Nov-24 01:33N 39°45' W 074°07'0 0.0
2016-Nov-24 00:33N 39°45' W 074°07'0 0.0
2016-Nov-23 23:33N 39°45' W 074°07'0 0.0
2016-Nov-23 22:33N 39°45' W 074°07'0 0.0
2016-Nov-23 21:33N 39°45' W 074°07'0 0.0
2016-Nov-23 20:33N 39°45' W 074°07'0 0.0
2016-Nov-23 19:33N 39°45' W 074°07'0 0.0
2016-Nov-23 18:33N 39°45' W 074°07'0 0.0
2016-Nov-23 17:33N 39°45' W 074°07'0 0.0
2016-Nov-23 16:33N 39°45' W 074°07'0 0.0
2016-Nov-23 15:33N 39°45' W 074°07'0 0.0
2016-Nov-23 14:33N 39°45' W 074°07'0 0.0
2016-Nov-23 13:33N 39°45' W 074°07'0 0.0
2016-Nov-23 12:33N 39°45' W 074°07'0 0.0
2016-Nov-23 11:33N 39°45' W 074°07'0 0.0
2016-Nov-23 10:33N 39°45' W 074°07'0 0.0
2016-Nov-23 09:33N 39°45' W 074°07'0 0.0
2016-Nov-23 08:33N 39°45' W 074°07'0 0.0
2016-Nov-23 07:33N 39°45' W 074°07'0 0.0
2016-Nov-23 06:33N 39°45' W 074°07'0 0.0
2016-Nov-23 03:33N 39°45' W 074°07'0 0.0
2016-Nov-23 02:33N 39°45' W 074°07'0 0.0
2016-Nov-23 00:33N 39°45' W 074°07'0 0.0
2016-Nov-22 23:33N 39°45' W 074°07'0 0.0
2016-Nov-22 22:33N 39°45' W 074°07'0 0.0
2016-Nov-22 20:33N 39°45' W 074°07'0 0.0
2016-Nov-22 19:33N 39°45' W 074°07'0 0.0
2016-Nov-22 17:33N 39°45' W 074°07'0 0.0
2016-Nov-22 16:33N 39°45' W 074°07'0 0.0
2016-Nov-22 15:33N 39°45' W 074°07'0 0.0
2016-Nov-22 14:33N 39°45' W 074°07'0 0.0
2016-Nov-22 13:33N 39°45' W 074°07'0 0.0
2016-Nov-22 10:33N 39°45' W 074°07'0 0.0
2016-Nov-22 09:33N 39°45' W 074°07'0 0.0
2016-Nov-22 08:33N 39°45' W 074°07'0 0.0
2016-Nov-22 07:33N 39°45' W 074°07'0 0.0
2016-Nov-22 05:33N 39°45' W 074°07'0 0.0
2016-Nov-22 04:33N 39°45' W 074°07'0 0.0
2016-Nov-22 03:33N 39°45' W 074°07'0 0.0
2016-Nov-22 02:33N 39°45' W 074°07'0 0.0
2016-Nov-21 23:33N 39°45' W 074°07'0 0.2
2016-Nov-21 21:33N 39°46' W 074°07'21 5.2
2016-Nov-21 17:34N 40°06' W 074°02'0 0.0
2016-Nov-21 14:33N 40°06' W 074°02'0 0.1
2016-Nov-21 13:33N 40°06' W 074°02'0 0.0
2016-Nov-20 21:34N 40°06' W 074°02'0 0.0
2016-Nov-20 17:33N 40°06' W 074°02'0 0.2
2016-Nov-20 16:33N 40°06' W 074°02'1 0.3
2016-Nov-20 14:33N 40°07' W 074°02'1 0.6
2016-Nov-20 13:33N 40°06' W 074°02'0 0.0
2016-Nov-20 12:33N 40°06' W 074°02'5 0.4
2016-Nov-19 22:19N 40°11' W 074°00'5 3.0
2016-Nov-19 20:33N 40°06' W 074°02'0 0.1
2016-Nov-19 19:33N 40°06' W 074°02'0 0.1
2016-Nov-19 17:33N 40°06' W 074°02'0 0.1
2016-Nov-19 16:33N 40°06' W 074°02'0 0.0
2016-Nov-19 14:33N 40°06' W 074°02'3 0.9
2016-Nov-19 11:33N 40°09' W 074°01'3 0.4
2016-Nov-19 04:30N 40°11' W 074°01'0 0.0
2016-Nov-19 03:31N 40°11' W 074°01'  

Dump ship's entire track history